Time;durP1;ratioP1;P1;durP2;ratioP2;P2;SDS_P1;SDS_P2;PMS_P1;PMS_P2;Temp;Humidity;BMP_temperature;BMP_pressure;BME280_temperature;BME280_humidity;BME280_pressure;Samples;Min_cycle;Max_cycle;Signal;HPM_P1;HPM_P2
2022/03/29 00:09:37;;;;;;;16.6;24.1;;;;;;;7.2;54.9;98240;;;;
2022/03/29 00:20:37;;;;;;;16.8;25;;;;;;;7.3;55.2;98220;;;;
2022/03/29 00:30:38;;;;;;;16.8;25;;;;;;;7.5;55.6;98210;;;;
2022/03/29 00:41:37;;;;;;;16.8;25;;;;;;;7.4;55.6;98190;;;;
2022/03/29 00:51:37;;;;;;;16.7;23.3;;;;;;;7.5;56;98180;;;;
2022/03/29 01:02:37;;;;;;;16.7;23.3;;;;;;;8;56.9;98210;;;;
2022/03/29 01:12:37;;;;;;;16.7;23.3;;;;;;;8;57.3;98190;;;;
2022/03/29 01:22:37;;;;;;;29.1;34.8;;;;;;;8.3;58;98190;;;;
2022/03/29 01:32:37;;;;;;;29.1;34.8;;;;;;;8.4;56.4;98190;;;;
2022/03/29 01:42:37;;;;;;;29.1;34.8;;;;;;;8.2;55.8;98200;;;;
2022/03/29 01:53:37;;;;;;;33.3;41.5;;;;;;;8.1;57.7;98160;;;;
2022/03/29 02:04:37;;;;;;;33.3;41.5;;;;;;;8.4;58.6;98170;;;;
2022/03/29 02:15:37;;;;;;;24.3;32.2;;;;;;;8.9;61.4;98160;;;;
2022/03/29 02:25:37;;;;;;;24.3;32.2;;;;;;;9.1;62.9;98150;;;;
2022/03/29 02:36:37;;;;;;;24.3;32.2;;;;;;;9.3;64.7;98140;;;;
2022/03/29 02:47:37;;;;;;;20.9;27.3;;;;;;;9.6;65.2;98160;;;;
2022/03/29 02:58:37;;;;;;;20.9;27.3;;;;;;;9.7;64.5;98140;;;;
2022/03/29 03:08:37;;;;;;;20.9;27.3;;;;;;;10;63.5;98140;;;;
2022/03/29 03:19:37;;;;;;;15.2;19.2;;;;;;;10.2;62.6;98130;;;;
2022/03/29 03:29:37;;;;;;;15.2;19.2;;;;;;;10.2;63;98110;;;;
2022/03/29 03:39:37;;;;;;;15.2;19.2;;;;;;;10.3;63.1;98110;;;;
2022/03/29 03:50:37;;;;;;;14.4;21.5;;;;;;;10.3;63.6;98100;;;;
2022/03/29 04:00:37;;;;;;;14.4;21.5;;;;;;;10.3;64.1;98090;;;;
2022/03/29 04:11:37;;;;;;;14.4;21.5;;;;;;;10.2;64.5;98080;;;;
2022/03/29 04:21:37;;;;;;;13.9;18.8;;;;;;;9.9;65.2;98080;;;;
2022/03/29 04:31:37;;;;;;;13.9;18.8;;;;;;;9.8;65.7;98070;;;;
2022/03/29 04:42:37;;;;;;;13.9;18.8;;;;;;;9.7;65.6;98080;;;;
2022/03/29 04:52:39;;;;;;;12.8;18.4;;;;;;;9.5;66.3;98090;;;;
2022/03/29 05:03:37;;;;;;;12.8;18.4;;;;;;;9.5;66;98070;;;;
2022/03/29 05:13:37;;;;;;;14.8;18.9;;;;;;;9.6;66.5;98070;;;;
2022/03/29 05:23:37;;;;;;;14.8;18.9;;;;;;;9.7;66.8;98080;;;;
2022/03/29 05:33:37;;;;;;;14.8;18.9;;;;;;;9.7;66.9;98080;;;;
2022/03/29 05:44:37;;;;;;;13.2;16.5;;;;;;;9.9;67;98080;;;;
2022/03/29 05:55:37;;;;;;;13.2;16.5;;;;;;;10.3;66.4;98080;;;;
2022/03/29 06:06:38;;;;;;;13.2;16.5;;;;;;;10.8;65.1;98090;;;;
2022/03/29 06:16:37;;;;;;;17.4;21.9;;;;;;;11.4;64;98090;;;;
2022/03/29 06:26:38;;;;;;;17.4;21.9;;;;;;;11.7;63;98090;;;;
2022/03/29 06:40:31;;;;;;;17.4;21.9;;;;;;;11.7;62.7;98090;;;;
2022/03/29 06:50:32;;;;;;;22.4;28.1;;;;;;;11.6;62.7;98110;;;;
2022/03/29 07:01:31;;;;;;;22.4;28.1;;;;;;;10.8;69.1;98150;;;;
2022/03/29 07:11:31;;;;;;;22.4;28.1;;;;;;;10.4;72.3;98140;;;;
2022/03/29 07:22:31;;;;;;;26.4;34.1;;;;;;;10.5;73.1;98120;;;;
2022/03/29 07:33:31;;;;;;;26.4;34.1;;;;;;;10.9;73.4;98120;;;;
2022/03/29 07:43:31;;;;;;;23.7;29.7;;;;;;;10.9;71.9;98120;;;;
2022/03/29 07:53:31;;;;;;;23.7;29.7;;;;;;;10.8;73;98140;;;;
2022/03/29 08:04:31;;;;;;;23.7;29.7;;;;;;;10.7;71.5;98140;;;;
2022/03/29 08:14:32;;;;;;;20.5;26.1;;;;;;;10.8;71.3;98100;;;;
2022/03/29 08:25:31;;;;;;;20.5;26.1;;;;;;;11.3;71.1;98100;;;;
2022/03/29 08:35:31;;;;;;;20.5;26.1;;;;;;;12;70;98100;;;;
2022/03/29 08:46:31;;;;;;;18.9;23.4;;;;;;;12.5;70.1;98100;;;;
2022/03/29 08:57:31;;;;;;;18.9;23.4;;;;;;;13.1;66;98110;;;;
2022/03/29 09:08:31;;;;;;;18.9;23.4;;;;;;;13.5;63.2;98100;;;;
2022/03/29 09:19:31;;;;;;;18.3;22.7;;;;;;;13.4;61.7;98090;;;;
2022/03/29 09:30:31;;;;;;;18.3;22.7;;;;;;;13.5;63.3;98080;;;;
2022/03/29 09:41:32;;;;;;;18.3;22.7;;;;;;;14.2;59.6;98070;;;;
2022/03/29 09:52:31;;;;;;;18.3;22.7;;;;;;;14.4;59.9;98060;;;;
2022/03/29 10:03:31;;;;;;;18.3;22.7;;;;;;;15.1;57.2;98040;;;;
2022/03/29 10:14:31;;;;;;;18.9;23.4;;;;;;;14.8;55.6;98040;;;;
2022/03/29 10:25:31;;;;;;;18.9;23.4;;;;;;;14.6;56.3;98030;;;;
2022/03/29 10:35:31;;;;;;;18.9;23.4;;;;;;;14.7;56.2;98020;;;;
2022/03/29 10:46:31;;;;;;;19;23;;;;;;;14.9;55.9;98010;;;;
2022/03/29 10:57:34;;;;;;;19;23;;;;;;;14.7;56.4;97990;;;;
2022/03/29 11:07:31;;;;;;;19;23;;;;;;;14.4;56.7;97980;;;;
2022/03/29 11:17:31;;;;;;;19.5;24.1;;;;;;;15.3;55.6;97970;;;;
2022/03/29 11:27:32;;;;;;;19.5;24.1;;;;;;;15.1;55;97960;;;;
2022/03/29 11:38:32;;;;;;;19.5;24.1;;;;;;;15.1;54.9;97940;;;;
2022/03/29 11:48:31;;;;;;;19.6;24.3;;;;;;;15;55.1;97940;;;;
2022/03/29 11:59:31;;;;;;;19.6;24.3;;;;;;;14.9;55.2;97930;;;;
2022/03/29 12:09:31;;;;;;;19.6;24.3;;;;;;;14.8;55.5;97930;;;;
2022/03/29 12:20:31;;;;;;;20;23.8;;;;;;;15.1;55.7;97910;;;;
2022/03/29 12:31:31;;;;;;;20;23.8;;;;;;;14.9;55.2;97900;;;;
2022/03/29 12:41:31;;;;;;;20;23.8;;;;;;;15.3;55;97880;;;;
2022/03/29 12:52:31;;;;;;;22.3;28.4;;;;;;;15.3;54.7;97870;;;;
2022/03/29 13:02:31;;;;;;;22.3;28.4;;;;;;;15.5;54.6;97860;;;;
2022/03/29 13:13:36;;;;;;;22.4;26.9;;;;;;;15.8;54.5;97840;;;;
2022/03/29 13:23:31;;;;;;;22.4;26.9;;;;;;;16;53.8;97840;;;;
2022/03/29 13:34:31;;;;;;;22.4;26.9;;;;;;;15.9;53.2;97830;;;;
2022/03/29 13:44:31;;;;;;;18.3;24.3;;;;;;;15.6;51.9;97820;;;;
2022/03/29 13:54:32;;;;;;;18.3;24.3;;;;;;;15.8;52.2;97810;;;;
2022/03/29 14:05:31;;;;;;;18.3;24.3;;;;;;;15.8;52.3;97790;;;;
2022/03/29 14:15:31;;;;;;;19.5;23;;;;;;;15.6;52;97780;;;;
2022/03/29 14:25:33;;;;;;;19.5;23;;;;;;;15.4;52.4;97770;;;;
2022/03/29 14:36:31;;;;;;;19.5;23;;;;;;;15.5;53.3;97760;;;;
2022/03/29 14:47:33;;;;;;;19.6;24.3;;;;;;;15.2;53.6;97750;;;;
2022/03/29 14:58:31;;;;;;;19.6;24.3;;;;;;;15.3;53.4;97740;;;;
2022/03/29 15:09:32;;;;;;;19.6;24.3;;;;;;;15.1;53.3;97730;;;;
2022/03/29 15:19:31;;;;;;;19;24.3;;;;;;;15;54;97730;;;;
2022/03/29 15:29:31;;;;;;;19;24.3;;;;;;;14.7;53.7;97720;;;;
2022/03/29 15:40:34;;;;;;;19;24.3;;;;;;;14.5;54.1;97720;;;;
2022/03/29 15:50:31;;;;;;;20.6;23.9;;;;;;;14.3;55;97710;;;;
2022/03/29 16:01:31;;;;;;;20.6;23.9;;;;;;;14.1;55.1;97700;;;;
2022/03/29 16:12:35;;;;;;;20.6;23.9;;;;;;;13.8;55.8;97690;;;;
2022/03/29 16:22:31;;;;;;;23;32.6;;;;;;;13.6;56.3;97690;;;;
2022/03/29 16:33:31;;;;;;;23;32.6;;;;;;;13.3;56.7;97690;;;;
2022/03/29 16:43:32;;;;;;;24.2;30.4;;;;;;;13;57.6;97680;;;;
2022/03/29 16:53:31;;;;;;;24.2;30.4;;;;;;;12.7;58.6;97690;;;;
2022/03/29 17:03:31;;;;;;;24.2;30.4;;;;;;;12.3;59.2;97690;;;;
2022/03/29 17:13:31;;;;;;;39.1;51.9;;;;;;;12;60;97690;;;;
2022/03/29 17:24:31;;;;;;;39.1;51.9;;;;;;;11.7;60;97680;;;;
2022/03/29 17:34:32;;;;;;;39.1;51.9;;;;;;;11.4;60.6;97690;;;;
2022/03/29 17:45:31;;;;;;;40.3;46.4;;;;;;;11.2;60.9;97690;;;;
2022/03/29 17:56:31;;;;;;;40.3;46.4;;;;;;;11;61.4;97710;;;;
2022/03/29 18:06:31;;;;;;;40.3;46.4;;;;;;;10.9;60.7;97700;;;;
2022/03/29 18:17:31;;;;;;;31.6;38;;;;;;;10.8;60.1;97710;;;;
2022/03/29 18:27:33;;;;;;;31.6;38;;;;;;;10.7;59.3;97700;;;;
2022/03/29 18:37:31;;;;;;;31.6;38;;;;;;;10.6;59.1;97710;;;;
2022/03/29 18:48:31;;;;;;;36.3;47.1;;;;;;;10.5;58.7;97720;;;;
2022/03/29 18:58:32;;;;;;;36.3;47.1;;;;;;;10.5;59.1;97750;;;;
2022/03/29 19:09:31;;;;;;;36.3;47.1;;;;;;;10.4;59.5;97730;;;;
2022/03/29 19:19:33;;;;;;;30.8;35.3;;;;;;;10.4;59.5;97730;;;;
2022/03/29 19:29:32;;;;;;;30.8;35.3;;;;;;;10.2;61.2;97770;;;;
2022/03/29 19:39:32;;;;;;;30.8;35.3;;;;;;;10;62.6;97760;;;;
2022/03/29 19:49:31;;;;;;;22.3;28.1;;;;;;;9.7;64.1;97770;;;;
2022/03/29 19:59:31;;;;;;;22.3;28.1;;;;;;;9.5;64.9;97770;;;;
2022/03/29 20:10:32;;;;;;;22.3;28.1;;;;;;;9.3;65.4;97750;;;;
2022/03/29 20:21:31;;;;;;;18.7;24.4;;;;;;;9.2;66.6;97770;;;;
2022/03/29 20:31:31;;;;;;;18.7;24.4;;;;;;;9.1;68.1;97760;;;;
2022/03/29 20:41:31;;;;;;;18.7;24.4;;;;;;;8.9;70.7;97790;;;;
2022/03/29 20:51:31;;;;;;;19.1;24.4;;;;;;;8.8;71.6;97790;;;;
2022/03/29 21:02:31;;;;;;;19.1;24.4;;;;;;;8.6;72.9;97790;;;;
2022/03/29 21:12:31;;;;;;;22.8;27.2;;;;;;;8.5;73;97800;;;;
2022/03/29 21:23:32;;;;;;;22.8;27.2;;;;;;;8.4;73.4;97810;;;;
2022/03/29 21:34:32;;;;;;;22.8;27.2;;;;;;;8.3;74;97820;;;;
2022/03/29 21:44:31;;;;;;;26.5;31;;;;;;;8.3;73.4;97810;;;;
2022/03/29 21:54:31;;;;;;;26.5;31;;;;;;;8.3;73.3;97830;;;;
2022/03/29 22:04:31;;;;;;;26.5;31;;;;;;;8.3;73.1;97820;;;;
2022/03/29 22:15:31;;;;;;;29.9;36.7;;;;;;;8;73.2;97820;;;;
2022/03/29 22:25:31;;;;;;;29.9;36.7;;;;;;;7.7;73.7;97830;;;;
2022/03/29 22:36:31;;;;;;;29.9;36.7;;;;;;;7.6;74.4;97810;;;;
2022/03/29 22:46:31;;;;;;;36.2;44.4;;;;;;;7.5;75.2;97820;;;;
2022/03/29 22:57:32;;;;;;;36.2;44.4;;;;;;;7.6;74.9;97820;;;;
2022/03/29 23:07:31;;;;;;;36.2;44.4;;;;;;;7.5;75.8;97830;;;;
2022/03/29 23:18:31;;;;;;;50.6;68.2;;;;;;;7.6;75.6;97820;;;;
2022/03/29 23:28:31;;;;;;;50.6;68.2;;;;;;;7.5;76.2;97810;;;;
2022/03/29 23:39:32;;;;;;;50.6;68.2;;;;;;;7.6;75.3;97810;;;;
2022/03/29 23:50:31;;;;;;;34.7;46;;;;;;;7.5;75.7;97810;;;;
